createdAt,value
2023-01-30T00:02:27.757Z,101049.47
2023-01-30T00:05:44.463Z,101041.94
2023-01-30T00:08:54.021Z,101041.84
2023-01-30T00:12:04.780Z,101047.44
2023-01-30T00:15:14.630Z,101037.44
2023-01-30T00:18:20.684Z,101037.00
2023-01-30T00:21:25.315Z,101037.47
2023-01-30T00:24:28.872Z,101038.94
2023-01-30T00:27:32.807Z,101038.50
2023-01-30T00:30:38.035Z,101028.06
2023-01-30T00:33:45.939Z,101034.66
2023-01-30T00:36:58.856Z,101037.69
2023-01-30T00:40:11.741Z,101031.88
2023-01-30T00:43:36.807Z,101039.31
2023-01-30T00:47:01.613Z,101039.84
2023-01-30T00:50:05.760Z,101024.44
2023-01-30T00:53:22.907Z,101022.94
2023-01-30T00:56:31.159Z,101015.66
2023-01-30T00:59:36.142Z,101009.03
2023-01-30T01:02:40.357Z,101009.84
2023-01-30T01:05:46.616Z,101007.88
2023-01-30T01:08:52.795Z,101011.16
2023-01-30T01:11:57.950Z,101002.03
2023-01-30T01:15:03.022Z,100989.44
2023-01-30T01:18:08.471Z,100990.91
2023-01-30T01:21:24.520Z,100995.38
2023-01-30T01:24:49.311Z,100983.19
2023-01-30T01:27:55.449Z,100990.00
2023-01-30T01:31:00.860Z,100980.00
2023-01-30T01:34:05.388Z,100963.56
2023-01-30T01:37:12.992Z,100968.22
2023-01-30T01:40:43.249Z,100978.34
2023-01-30T01:44:04.416Z,100963.88
2023-01-30T01:47:09.906Z,100967.63
2023-01-30T01:50:36.644Z,100949.31
2023-01-30T01:53:55.827Z,100944.78
2023-01-30T01:57:08.366Z,100941.81
2023-01-30T02:00:18.275Z,100938.03
2023-01-30T02:03:36.115Z,100931.88
2023-01-30T02:06:47.873Z,100918.13
2023-01-30T02:09:52.035Z,100921.19
2023-01-30T02:13:00.160Z,100915.50
2023-01-30T02:16:10.516Z,100907.47
2023-01-30T02:19:33.067Z,100909.34
2023-01-30T02:22:53.828Z,100896.53
2023-01-30T02:26:08.183Z,100903.81
2023-01-30T02:29:41.247Z,100904.00
2023-01-30T02:33:15.062Z,100893.94
2023-01-30T02:36:56.768Z,100889.28
2023-01-30T02:40:27.990Z,100879.53
2023-01-30T02:44:06.064Z,100882.16
2023-01-30T02:47:20.930Z,100874.22
2023-01-30T02:50:29.361Z,100869.44
2023-01-30T02:53:34.068Z,100858.22
2023-01-30T02:56:52.496Z,100854.03
2023-01-30T02:59:59.254Z,100857.53
2023-01-30T03:03:32.405Z,100846.34
2023-01-30T03:06:48.862Z,100854.84
2023-01-30T03:10:07.804Z,100852.66
2023-01-30T03:13:21.230Z,100848.13
2023-01-30T03:16:34.624Z,100843.56
2023-01-30T03:20:02.969Z,100846.13
2023-01-30T03:23:19.928Z,100841.16
2023-01-30T03:26:33.311Z,100845.09
2023-01-30T03:29:38.857Z,100838.09
2023-01-30T03:32:56.033Z,100840.78
2023-01-30T03:35:58.835Z,100833.19
2023-01-30T03:39:01.229Z,100827.13
2023-01-30T03:42:10.038Z,100829.31
2023-01-30T03:45:18.080Z,100827.97
2023-01-30T03:48:22.679Z,100829.22
2023-01-30T03:51:28.019Z,100828.78
2023-01-30T03:54:31.299Z,100822.31
2023-01-30T03:57:37.125Z,100823.66
2023-01-30T04:00:45.422Z,100822.34
2023-01-30T04:04:01.943Z,100818.47
2023-01-30T04:10:34.220Z,100808.97
2023-01-30T04:13:36.497Z,100804.41
2023-01-30T04:16:44.444Z,100809.03
2023-01-30T04:20:11.229Z,100803.34
2023-01-30T04:23:29.523Z,100807.59
2023-01-30T04:26:32.797Z,100802.88
2023-01-30T04:29:37.937Z,100797.75
2023-01-30T04:32:48.291Z,100790.91
2023-01-30T04:35:57.353Z,100790.69
2023-01-30T04:39:02.552Z,100780.19
2023-01-30T04:42:13.638Z,100776.06
2023-01-30T04:45:30.904Z,100768.16
2023-01-30T04:48:33.185Z,100767.31
2023-01-30T04:51:38.087Z,100763.97
2023-01-30T04:54:46.441Z,100766.28
2023-01-30T04:57:48.755Z,100765.69
2023-01-30T05:00:54.017Z,100764.34
2023-01-30T05:03:56.575Z,100767.56
2023-01-30T05:06:59.013Z,100753.75
2023-01-30T05:10:04.202Z,100755.38
2023-01-30T05:13:16.893Z,100759.13
2023-01-30T05:16:28.940Z,100759.03
2023-01-30T05:19:31.407Z,100758.63
2023-01-30T05:22:38.317Z,100759.41
2023-01-30T05:25:52.838Z,100753.47
2023-01-30T05:29:00.714Z,100755.09
2023-01-30T05:32:11.269Z,100752.03
2023-01-30T05:35:19.158Z,100750.19
2023-01-30T05:38:30.470Z,100741.88
2023-01-30T05:41:33.854Z,100744.91
2023-01-30T05:44:39.080Z,100734.25
2023-01-30T05:48:01.593Z,100731.72
2023-01-30T05:51:04.277Z,100736.00
2023-01-30T05:54:07.650Z,100736.16
2023-01-30T05:57:20.717Z,100737.75
2023-01-30T06:00:31.104Z,100737.41
2023-01-30T06:03:36.036Z,100742.56
2023-01-30T06:06:41.346Z,100733.38
2023-01-30T06:09:43.599Z,100729.00
2023-01-30T06:12:48.015Z,100734.81
2023-01-30T06:15:55.874Z,100740.25
2023-01-30T06:19:02.595Z,100735.84
2023-01-30T06:22:07.372Z,100737.22
2023-01-30T06:25:15.550Z,100735.69
2023-01-30T06:28:20.541Z,100752.84
2023-01-30T06:31:27.870Z,100741.16
2023-01-30T06:34:32.977Z,100738.47
2023-01-30T06:37:35.523Z,100728.56
2023-01-30T06:40:42.007Z,100725.81
2023-01-30T06:43:46.994Z,100721.91
2023-01-30T06:46:52.999Z,100726.16
2023-01-30T06:50:00.623Z,100725.06
2023-01-30T06:53:06.374Z,100729.50
2023-01-30T06:56:13.984Z,100726.03
2023-01-30T06:59:16.299Z,100723.25
2023-01-30T07:02:37.402Z,100714.03
2023-01-30T07:05:45.855Z,100707.84
2023-01-30T07:09:00.844Z,100714.41
2023-01-30T07:12:08.043Z,100719.88
2023-01-30T07:15:13.496Z,100710.41
2023-01-30T07:18:18.698Z,100704.66
2023-01-30T07:21:33.043Z,100714.81
2023-01-30T07:24:48.133Z,100703.94
2023-01-30T07:27:56.281Z,100700.63
2023-01-30T07:31:02.051Z,100702.94
2023-01-30T07:34:24.101Z,100709.78
2023-01-30T07:37:30.445Z,100704.72
2023-01-30T07:40:37.328Z,100706.22
2023-01-30T07:43:49.044Z,100710.81
2023-01-30T07:46:54.354Z,100686.38
2023-01-30T07:49:57.090Z,100689.56
2023-01-30T07:53:03.588Z,100688.16
2023-01-30T07:56:24.413Z,100683.75
2023-01-30T07:59:40.329Z,100683.09
2023-01-30T08:02:46.433Z,100686.56
2023-01-30T08:05:55.559Z,100678.88
2023-01-30T08:08:57.819Z,100670.31
2023-01-30T08:12:05.571Z,100666.50
2023-01-30T08:15:12.056Z,100638.25
2023-01-30T08:18:19.414Z,100613.34
2023-01-30T08:21:21.853Z,100604.59
2023-01-30T08:24:26.818Z,100602.19
2023-01-30T08:27:29.162Z,100603.78
2023-01-30T08:30:34.008Z,100597.00
2023-01-30T08:33:39.526Z,100609.09
2023-01-30T08:36:50.109Z,100602.28
2023-01-30T08:39:52.615Z,100611.41
2023-01-30T08:42:56.394Z,100615.19
2023-01-30T08:45:58.964Z,100609.88
2023-01-30T08:49:04.953Z,100599.28
2023-01-30T08:52:15.598Z,100605.63
2023-01-30T08:55:27.984Z,100613.34
2023-01-30T08:58:30.317Z,100613.31
2023-01-30T09:01:35.840Z,100610.00
2023-01-30T09:04:43.083Z,100603.84
2023-01-30T09:07:50.466Z,100599.91
2023-01-30T09:11:06.949Z,100599.91
2023-01-30T09:14:14.942Z,100601.59
2023-01-30T09:17:17.177Z,100594.31
2023-01-30T09:20:22.344Z,100587.19
2023-01-30T09:23:24.771Z,100580.72
2023-01-30T09:26:33.233Z,100569.84
2023-01-30T09:29:38.348Z,100567.97
2023-01-30T09:32:43.454Z,100568.69
2023-01-30T09:35:51.854Z,100560.69
2023-01-30T09:38:56.961Z,100557.19
2023-01-30T09:42:02.259Z,100547.88
2023-01-30T09:45:15.296Z,100539.28
2023-01-30T09:48:42.616Z,100525.09
2023-01-30T09:51:50.669Z,100523.94
2023-01-30T09:55:01.814Z,100517.56
2023-01-30T09:58:06.009Z,100513.78
2023-01-30T10:01:50.827Z,100509.09
2023-01-30T10:05:01.630Z,100519.16
2023-01-30T10:08:08.943Z,100498.91
2023-01-30T10:11:36.600Z,100495.06
2023-01-30T10:15:22.859Z,100498.47
2023-01-30T10:18:49.405Z,100486.47
2023-01-30T10:22:25.211Z,100476.88
2023-01-30T10:25:44.871Z,100473.69
2023-01-30T10:29:08.005Z,100470.50
2023-01-30T10:32:14.185Z,100449.38
2023-01-30T10:35:20.853Z,100451.53
2023-01-30T10:38:38.586Z,100434.19
2023-01-30T10:41:54.487Z,100429.69
2023-01-30T10:45:07.071Z,100415.06
2023-01-30T10:48:20.339Z,100407.16
2023-01-30T10:51:44.419Z,100399.09
2023-01-30T10:55:10.519Z,100396.47
2023-01-30T10:58:44.957Z,100377.69
2023-01-30T11:02:01.911Z,100376.19
2023-01-30T11:05:21.207Z,100371.78
2023-01-30T11:08:34.330Z,100352.63
2023-01-30T11:11:53.460Z,100343.06
2023-01-30T11:15:09.031Z,100347.97
2023-01-30T11:19:17.167Z,100342.06
2023-01-30T11:22:02.705Z,100325.06
2023-01-30T11:25:16.462Z,100324.84
2023-01-30T11:28:26.267Z,100337.28
2023-01-30T11:31:42.287Z,100323.50
2023-01-30T11:35:04.801Z,100315.47
2023-01-30T11:38:29.997Z,100309.25
2023-01-30T11:42:08.795Z,100292.06
2023-01-30T11:45:17.821Z,100288.03
2023-01-30T11:48:32.945Z,100288.91
2023-01-30T11:51:55.609Z,100261.56
2023-01-30T11:55:07.042Z,100271.25
2023-01-30T11:58:20.397Z,100279.97
2023-01-30T12:01:33.974Z,100265.00
2023-01-30T12:04:38.052Z,100264.88
2023-01-30T12:07:41.459Z,100251.47
2023-01-30T12:10:46.134Z,100254.66
2023-01-30T12:13:49.644Z,100246.41
2023-01-30T12:17:04.178Z,100253.19
2023-01-30T12:20:37.428Z,100241.09
2023-01-30T12:23:43.216Z,100223.56
2023-01-30T12:27:04.755Z,100208.56
2023-01-30T12:30:44.440Z,100193.97
2023-01-30T12:33:49.238Z,100187.88
2023-01-30T12:37:09.210Z,100198.28
2023-01-30T12:40:39.156Z,100200.75
2023-01-30T12:44:02.047Z,100186.59
2023-01-30T12:47:33.563Z,100186.59
2023-01-30T12:50:45.742Z,100206.72
2023-01-30T12:54:09.285Z,100203.44
2023-01-30T12:57:39.746Z,100197.44
2023-01-30T13:00:48.260Z,100189.75
2023-01-30T13:04:04.005Z,100182.66
2023-01-30T13:07:26.799Z,100178.94
2023-01-30T13:10:46.052Z,100172.50
2023-01-30T13:14:00.352Z,100139.34
2023-01-30T13:17:14.351Z,100140.59
2023-01-30T13:20:37.887Z,100134.72
2023-01-30T13:24:25.543Z,100141.50
2023-01-30T13:27:41.906Z,100135.03
2023-01-30T13:30:46.590Z,100132.44
2023-01-30T13:34:05.506Z,100129.16
2023-01-30T13:37:14.853Z,100128.72
2023-01-30T13:40:25.038Z,100132.81
2023-01-30T13:43:38.752Z,100135.75
2023-01-30T13:46:50.886Z,100129.59
2023-01-30T13:50:20.640Z,100137.63
2023-01-30T13:53:36.086Z,100129.53
2023-01-30T13:56:48.366Z,100122.88
2023-01-30T14:00:11.506Z,100123.44
2023-01-30T14:03:31.450Z,100108.41
2023-01-30T14:06:38.504Z,100115.47
2023-01-30T14:09:46.520Z,100114.09
2023-01-30T14:12:56.931Z,100105.66
2023-01-30T14:16:06.467Z,100115.25
2023-01-30T14:19:48.156Z,100110.66
2023-01-30T14:23:00.284Z,100119.00
2023-01-30T14:26:07.229Z,100117.72
2023-01-30T14:29:11.735Z,100129.53
2023-01-30T14:32:19.337Z,100145.03
2023-01-30T14:35:33.162Z,100130.69
2023-01-30T14:38:40.159Z,100133.97
2023-01-30T14:41:47.583Z,100132.31
2023-01-30T14:45:17.593Z,100134.38
2023-01-30T14:48:54.892Z,100138.81
2023-01-30T14:52:04.666Z,100127.38
2023-01-30T14:55:23.409Z,100124.34
2023-01-30T14:58:28.767Z,100129.78
2023-01-30T15:02:00.859Z,100119.59
2023-01-30T15:05:22.737Z,100118.13
2023-01-30T15:08:27.986Z,100106.28
2023-01-30T15:11:37.440Z,100118.81
2023-01-30T15:15:04.460Z,100120.94
2023-01-30T15:18:11.833Z,100121.63
2023-01-30T15:21:47.207Z,100119.41
2023-01-30T15:25:20.614Z,100116.69
2023-01-30T15:29:05.266Z,100108.19
2023-01-30T15:32:29.772Z,100113.72
2023-01-30T15:35:37.361Z,100121.53
2023-01-30T15:38:49.059Z,100136.53
2023-01-30T15:41:53.120Z,100142.66
2023-01-30T15:45:14.440Z,100143.69
2023-01-30T15:49:01.398Z,100142.75
2023-01-30T15:52:08.126Z,100137.25
2023-01-30T15:55:38.063Z,100135.31
2023-01-30T15:58:43.179Z,100142.75
2023-01-30T16:02:12.806Z,100146.03
2023-01-30T16:05:28.538Z,100153.59
2023-01-30T16:08:38.039Z,100153.72
2023-01-30T16:11:45.929Z,100139.72
2023-01-30T16:14:51.822Z,100141.19
2023-01-30T16:18:15.481Z,100148.06
2023-01-30T16:21:36.942Z,100160.81
2023-01-30T16:24:44.031Z,100151.44
2023-01-30T16:27:51.278Z,100164.00
2023-01-30T16:31:00.781Z,100160.25
2023-01-30T16:34:08.843Z,100174.41
2023-01-30T16:37:16.549Z,100158.91
2023-01-30T16:40:29.298Z,100161.59
2023-01-30T16:43:37.737Z,100151.34
2023-01-30T16:46:46.304Z,100165.78
2023-01-30T16:50:12.937Z,100158.78
2023-01-30T16:53:27.797Z,100154.94
2023-01-30T16:56:41.461Z,100146.72
2023-01-30T16:59:50.401Z,100161.50
2023-01-30T17:03:02.739Z,100150.44
2023-01-30T17:06:16.274Z,100152.91
2023-01-30T17:09:46.374Z,100156.97
2023-01-30T17:12:50.205Z,100154.50
2023-01-30T17:15:53.675Z,100137.13
2023-01-30T17:18:59.726Z,100145.94
2023-01-30T17:22:08.594Z,100148.53
2023-01-30T17:25:42.227Z,100141.97
2023-01-30T17:28:49.367Z,100138.25
2023-01-30T17:31:57.937Z,100129.09
2023-01-30T17:35:03.931Z,100137.13
2023-01-30T17:38:06.549Z,100142.44
2023-01-30T17:41:23.480Z,100150.34
2023-01-30T17:44:25.753Z,100139.03
2023-01-30T17:47:42.596Z,100138.34
2023-01-30T17:50:54.206Z,100132.81
2023-01-30T17:53:56.535Z,100129.63
2023-01-30T17:57:09.845Z,100127.28
2023-01-30T18:00:18.659Z,100125.78
2023-01-30T18:03:27.748Z,100135.88
2023-01-30T18:06:34.089Z,100133.94
2023-01-30T18:09:36.297Z,100135.59
2023-01-30T18:12:43.106Z,100147.56
2023-01-30T18:15:48.242Z,100156.97
2023-01-30T18:18:54.461Z,100155.81
2023-01-30T18:22:00.193Z,100138.19
2023-01-30T18:25:17.581Z,100143.41
2023-01-30T18:28:20.106Z,100138.63
2023-01-30T18:31:26.326Z,100140.97
2023-01-30T18:34:28.880Z,100141.88
2023-01-30T18:37:34.082Z,100157.50
2023-01-30T18:40:44.774Z,100154.66
2023-01-30T18:43:51.492Z,100153.88
2023-01-30T18:47:00.683Z,100148.13
2023-01-30T18:50:13.912Z,100156.09
2023-01-30T18:53:19.096Z,100138.91
2023-01-30T18:56:34.535Z,100137.44
2023-01-30T18:59:36.901Z,100135.25
2023-01-30T19:02:39.309Z,100143.44
2023-01-30T19:05:48.214Z,100143.97
2023-01-30T19:08:50.833Z,100152.38
2023-01-30T19:12:16.059Z,100143.94
2023-01-30T19:15:19.821Z,100145.28
2023-01-30T19:18:25.010Z,100153.09
2023-01-30T19:21:28.733Z,100147.69
2023-01-30T19:24:31.061Z,100146.06
2023-01-30T19:27:36.512Z,100143.38
2023-01-30T19:30:45.332Z,100140.31
2023-01-30T19:34:04.692Z,100140.22
2023-01-30T19:37:07.400Z,100150.38
2023-01-30T19:40:11.144Z,100155.03
2023-01-30T19:43:25.047Z,100158.63
2023-01-30T19:46:36.989Z,100154.81
2023-01-30T19:49:42.304Z,100166.88
2023-01-30T19:52:54.475Z,100162.56
2023-01-30T19:56:05.069Z,100163.50
2023-01-30T19:59:09.835Z,100158.22
2023-01-30T20:02:50.026Z,100163.63
2023-01-30T20:05:53.479Z,100152.47
2023-01-30T20:09:22.813Z,100148.63
2023-01-30T20:12:30.804Z,100136.47
2023-01-30T20:15:34.165Z,100138.06
2023-01-30T20:18:42.238Z,100140.06
2023-01-30T20:21:49.280Z,100137.56
2023-01-30T20:24:54.298Z,100136.75
2023-01-30T20:27:59.177Z,100132.88
2023-01-30T20:31:11.359Z,100137.38
2023-01-30T20:34:15.787Z,100135.69
2023-01-30T20:37:26.320Z,100145.09
2023-01-30T20:40:32.927Z,100140.69
2023-01-30T20:43:49.058Z,100137.84
2023-01-30T20:46:56.622Z,100137.38
2023-01-30T20:50:01.429Z,100147.97
2023-01-30T20:53:13.949Z,100140.38
2023-01-30T20:56:16.428Z,100141.34
2023-01-30T20:59:24.267Z,100132.38
2023-01-30T21:02:34.389Z,100134.88
2023-01-30T21:05:37.245Z,100135.00
2023-01-30T21:09:02.784Z,100132.81
2023-01-30T21:12:10.598Z,100132.34
2023-01-30T21:15:23.529Z,100139.44
2023-01-30T21:18:26.396Z,100144.06
2023-01-30T21:21:55.026Z,100145.50
2023-01-30T21:24:57.494Z,100157.34
2023-01-30T21:28:10.113Z,100167.50
2023-01-30T21:31:20.002Z,100149.53
2023-01-30T21:34:29.169Z,100150.38
2023-01-30T21:37:57.899Z,100139.88
2023-01-30T21:41:18.730Z,100135.28
2023-01-30T21:44:34.073Z,100140.03
2023-01-30T21:47:42.937Z,100151.06
2023-01-30T21:50:49.175Z,100160.00
2023-01-30T21:54:05.927Z,100157.16
2023-01-30T21:57:20.290Z,100148.72
2023-01-30T22:00:23.999Z,100160.59
2023-01-30T22:03:34.012Z,100165.81
2023-01-30T22:06:40.549Z,100163.06
2023-01-30T22:09:48.841Z,100163.63
2023-01-30T22:12:51.274Z,100176.03
2023-01-30T22:16:00.578Z,100170.50
2023-01-30T22:19:06.616Z,100163.81
2023-01-30T22:22:19.264Z,100162.78
2023-01-30T22:25:30.565Z,100154.25
2023-01-30T22:28:36.410Z,100143.72
2023-01-30T22:31:53.165Z,100134.28
2023-01-30T22:35:02.186Z,100133.06
2023-01-30T22:38:04.455Z,100141.56
2023-01-30T22:41:10.215Z,100123.22
2023-01-30T22:44:14.731Z,100129.22
2023-01-30T22:47:22.221Z,100119.50
2023-01-30T22:50:27.580Z,100117.66
2023-01-30T22:53:41.963Z,100125.97
2023-01-30T22:56:51.005Z,100120.28
2023-01-30T22:59:58.315Z,100125.03
2023-01-30T23:03:06.903Z,100128.72
2023-01-30T23:06:13.959Z,100120.09
2023-01-30T23:09:22.388Z,100122.13
2023-01-30T23:12:46.448Z,100115.34
2023-01-30T23:15:51.356Z,100110.13
2023-01-30T23:19:00.114Z,100114.78
2023-01-30T23:22:09.173Z,100097.19
2023-01-30T23:25:11.409Z,100097.97
2023-01-30T23:28:17.632Z,100105.75
2023-01-30T23:31:27.370Z,100108.28
2023-01-30T23:34:33.226Z,100108.34
2023-01-30T23:37:57.221Z,100111.53
2023-01-30T23:41:11.788Z,100118.03
2023-01-30T23:44:32.674Z,100122.28
2023-01-30T23:47:37.940Z,100114.84
2023-01-30T23:50:45.996Z,100110.94
2023-01-30T23:53:54.613Z,100112.56
2023-01-30T23:57:05.992Z,100097.59
